createdAt,value
2018-11-23T00:00:00.654Z,72.02
2018-11-23T00:01:00.782Z,75.20
2018-11-23T00:02:00.925Z,71.78
2018-11-23T00:03:01.054Z,73.97
2018-11-23T00:04:01.176Z,74.46
2018-11-23T00:05:01.309Z,72.75
2018-11-23T00:06:02.207Z,71.29
2018-11-23T00:07:01.563Z,71.78
2018-11-23T00:08:01.693Z,73.49
2018-11-23T00:09:01.830Z,74.22
2018-11-23T00:10:01.964Z,74.22
2018-11-23T00:11:02.088Z,73.24
2018-11-23T00:12:02.240Z,76.17
2018-11-23T00:13:02.375Z,70.80
2018-11-23T00:14:02.500Z,75.68
2018-11-23T00:15:02.635Z,75.20
2018-11-23T00:16:02.764Z,71.29
2018-11-23T00:17:02.888Z,73.00
2018-11-23T00:18:03.025Z,73.00
2018-11-23T00:19:03.153Z,72.27
2018-11-23T00:20:03.278Z,70.80
2018-11-23T00:21:03.405Z,73.49
2018-11-23T00:22:03.531Z,72.27
2018-11-23T00:23:03.646Z,71.78
2018-11-23T00:24:03.789Z,74.71
2018-11-23T00:25:03.916Z,73.00
2018-11-23T00:26:04.047Z,73.24
2018-11-23T00:27:04.175Z,74.46
2018-11-23T00:28:04.304Z,73.49
2018-11-23T00:29:04.458Z,75.68
2018-11-23T00:30:04.590Z,71.29
2018-11-23T00:31:04.714Z,72.51
2018-11-23T00:32:04.847Z,72.02
2018-11-23T00:33:04.972Z,74.22
2018-11-23T00:34:05.104Z,74.22
2018-11-23T00:35:05.235Z,75.68
2018-11-23T00:36:05.365Z,72.75
2018-11-23T00:37:05.496Z,73.73
2018-11-23T00:38:05.657Z,72.02
2018-11-23T00:39:05.787Z,70.80
2018-11-23T00:40:05.911Z,72.27
2018-11-23T00:41:06.064Z,73.24
2018-11-23T00:42:06.188Z,73.24
2018-11-23T00:43:06.320Z,70.56
2018-11-23T00:44:06.438Z,74.71
2018-11-23T00:45:06.586Z,90.33
2018-11-23T00:46:06.713Z,76.90
2018-11-23T00:47:06.841Z,72.75
2018-11-23T00:48:06.967Z,74.95
2018-11-23T00:49:07.120Z,71.29
2018-11-23T00:50:07.252Z,71.53
2018-11-23T00:51:07.378Z,72.27
2018-11-23T00:52:07.515Z,70.80
2018-11-23T00:53:07.666Z,72.02
2018-11-23T00:54:07.813Z,73.97
2018-11-23T00:55:07.950Z,73.24
2018-11-23T00:56:08.074Z,72.51
2018-11-23T00:57:08.209Z,72.27
2018-11-23T00:58:08.401Z,74.95
2018-11-23T00:59:08.402Z,68.60
2018-11-23T01:00:08.530Z,73.24
2018-11-23T01:01:08.677Z,73.73
2018-11-23T01:02:08.804Z,73.00
2018-11-23T01:03:08.932Z,66.65
2018-11-23T01:04:09.111Z,72.75
2018-11-23T01:05:09.239Z,70.07
2018-11-23T01:06:09.369Z,71.29
2018-11-23T01:07:09.537Z,73.97
2018-11-23T01:08:09.672Z,70.31
2018-11-23T01:09:09.800Z,70.07
2018-11-23T01:10:09.928Z,71.53
2018-11-23T01:11:10.058Z,69.82
2018-11-23T01:12:10.185Z,72.51
2018-11-23T01:13:10.316Z,78.37
2018-11-23T01:14:10.450Z,70.07
2018-11-23T01:15:10.610Z,72.75
2018-11-23T01:16:10.746Z,71.53
2018-11-23T01:17:10.872Z,69.82
2018-11-23T01:18:11.001Z,71.29
2018-11-23T01:19:11.151Z,75.93
2018-11-23T01:20:11.286Z,73.49
2018-11-23T01:21:11.413Z,72.75
2018-11-23T01:22:11.544Z,72.02
2018-11-23T01:23:11.677Z,70.80
2018-11-23T01:24:11.863Z,69.34
2018-11-23T01:25:11.910Z,71.53
2018-11-23T01:26:12.039Z,71.53
2018-11-23T01:27:12.168Z,71.53
2018-11-23T01:28:12.349Z,71.29
2018-11-23T01:29:12.473Z,71.04
2018-11-23T01:30:12.614Z,71.29
2018-11-23T01:31:12.775Z,73.49
2018-11-23T01:32:12.905Z,70.56
2018-11-23T01:33:13.031Z,73.00
2018-11-23T01:34:13.207Z,71.04
2018-11-23T01:35:13.335Z,71.78
2018-11-23T01:36:13.466Z,72.75
2018-11-23T01:37:13.594Z,69.82
2018-11-23T01:38:13.717Z,72.02
2018-11-23T01:39:13.849Z,72.51
2018-11-23T01:40:14.062Z,76.66
2018-11-23T01:41:14.065Z,73.73
2018-11-23T01:42:14.187Z,74.46
2018-11-23T01:43:14.321Z,72.27
2018-11-23T01:44:14.456Z,72.75
2018-11-23T01:45:14.596Z,72.51
2018-11-23T01:46:14.818Z,74.71
2018-11-23T01:47:14.823Z,73.97
2018-11-23T01:48:14.951Z,70.07
2018-11-23T01:49:15.147Z,72.27
2018-11-23T01:50:15.148Z,72.27
2018-11-23T01:51:15.272Z,72.02
2018-11-23T01:52:15.397Z,71.04
2018-11-23T01:53:15.528Z,71.78
2018-11-23T01:54:15.653Z,69.09
2018-11-23T01:55:15.813Z,73.97
2018-11-23T01:56:15.945Z,73.24
2018-11-23T01:57:16.072Z,73.24
2018-11-23T01:58:16.234Z,70.80
2018-11-23T01:59:16.366Z,71.53
2018-11-23T02:00:16.508Z,73.49
2018-11-23T02:01:16.666Z,73.24
2018-11-23T02:02:16.796Z,76.66
2018-11-23T02:03:16.928Z,73.24
2018-11-23T02:04:17.055Z,77.88
2018-11-23T02:05:17.179Z,73.73
2018-11-23T02:06:17.314Z,72.51
2018-11-23T02:07:17.524Z,72.75
2018-11-23T02:08:17.523Z,67.87
2018-11-23T02:09:17.650Z,73.73
2018-11-23T02:10:17.847Z,75.68
2018-11-23T02:11:17.849Z,78.13
2018-11-23T02:12:18.010Z,72.02
2018-11-23T02:13:18.137Z,70.56
2018-11-23T02:14:18.259Z,70.80
2018-11-23T02:15:18.397Z,72.27
2018-11-23T02:16:18.542Z,73.49
2018-11-23T02:17:18.673Z,71.29
2018-11-23T02:18:18.803Z,70.80
2018-11-23T02:19:19.035Z,72.51
2018-11-23T02:20:19.035Z,73.49
2018-11-23T02:21:19.167Z,70.80
2018-11-23T02:22:19.290Z,72.51
2018-11-23T02:23:19.416Z,72.02
2018-11-23T02:24:19.547Z,71.78
2018-11-23T02:25:19.690Z,73.24
2018-11-23T02:26:19.814Z,72.75
2018-11-23T02:27:19.945Z,73.00
2018-11-23T02:28:20.118Z,72.02
2018-11-23T02:29:20.247Z,73.49
2018-11-23T02:30:20.375Z,68.12
2018-11-23T02:31:20.547Z,76.90
2018-11-23T02:32:20.673Z,73.73
2018-11-23T02:33:20.805Z,72.51
2018-11-23T02:34:20.926Z,73.00
2018-11-23T02:35:21.059Z,73.97
2018-11-23T02:36:21.185Z,72.75
2018-11-23T02:37:21.413Z,72.02
2018-11-23T02:38:21.400Z,70.56
2018-11-23T02:39:21.542Z,72.51
2018-11-23T02:40:21.742Z,74.22
2018-11-23T02:41:21.744Z,73.73
2018-11-23T02:42:21.873Z,73.73
2018-11-23T02:43:22.006Z,73.49
2018-11-23T02:44:22.131Z,72.27
2018-11-23T02:45:22.263Z,72.27
2018-11-23T02:46:22.397Z,74.22
2018-11-23T02:47:22.532Z,72.02
2018-11-23T02:48:22.659Z,72.51
2018-11-23T02:49:22.817Z,73.97
2018-11-23T02:50:22.952Z,75.68
2018-11-23T02:51:23.081Z,71.53
2018-11-23T02:52:23.207Z,71.29
2018-11-23T02:53:23.329Z,74.95
2018-11-23T02:54:23.455Z,72.27
2018-11-23T02:55:23.680Z,73.73
2018-11-23T02:56:23.698Z,73.49
2018-11-23T02:57:23.824Z,75.44
2018-11-23T02:58:23.953Z,68.85
2018-11-23T02:59:24.115Z,72.27
2018-11-23T03:00:24.211Z,73.00
2018-11-23T03:01:24.343Z,73.24
2018-11-23T03:02:24.467Z,71.04
2018-11-23T03:03:24.596Z,71.78
2018-11-23T03:04:24.726Z,69.82
2018-11-23T03:05:24.858Z,72.75
2018-11-23T03:06:24.982Z,71.78
2018-11-23T03:07:25.196Z,71.78
2018-11-23T03:08:25.200Z,70.56
2018-11-23T03:09:25.332Z,76.42
2018-11-23T03:10:25.521Z,71.78
2018-11-23T03:11:25.525Z,74.22
2018-11-23T03:12:25.652Z,74.71
2018-11-23T03:13:25.791Z,71.78
2018-11-23T03:14:25.912Z,74.95
2018-11-23T03:15:26.053Z,75.20
2018-11-23T03:16:26.276Z,72.02
2018-11-23T03:17:26.289Z,73.00
2018-11-23T03:18:26.413Z,73.24
2018-11-23T03:19:26.618Z,73.00
2018-11-23T03:20:26.615Z,70.31
2018-11-23T03:21:26.745Z,73.97
2018-11-23T03:22:26.872Z,72.02
2018-11-23T03:23:27.016Z,73.24
2018-11-23T03:24:27.144Z,71.78
2018-11-23T03:25:27.362Z,73.49
2018-11-23T03:26:27.368Z,73.00
2018-11-23T03:27:27.492Z,75.68
2018-11-23T03:28:27.621Z,74.95
2018-11-23T03:29:27.750Z,75.93
2018-11-23T03:30:27.875Z,76.42
2018-11-23T03:31:28.019Z,76.66
2018-11-23T03:32:28.140Z,75.93
2018-11-23T03:33:28.273Z,75.68
2018-11-23T03:34:28.935Z,75.44
2018-11-23T03:35:28.561Z,79.10
2018-11-23T03:36:28.684Z,75.93
2018-11-23T03:37:28.818Z,76.42
2018-11-23T03:38:28.944Z,76.17
2018-11-23T03:39:34.068Z,77.15
2018-11-23T03:40:29.205Z,76.66
2018-11-23T03:41:29.332Z,76.17
2018-11-23T03:42:29.460Z,75.44
2018-11-23T03:43:29.592Z,78.37
2018-11-23T03:44:29.722Z,76.90
2018-11-23T03:45:29.871Z,76.90
2018-11-23T03:46:29.979Z,77.15
2018-11-23T03:47:30.109Z,77.64
2018-11-23T03:48:30.233Z,74.95
2018-11-23T03:49:30.366Z,76.90
2018-11-23T03:50:30.488Z,77.39
2018-11-23T03:51:30.615Z,76.17
2018-11-23T03:52:30.745Z,75.68
2018-11-23T03:53:30.869Z,76.42
2018-11-23T03:54:31.007Z,76.66
2018-11-23T03:55:31.131Z,75.44
2018-11-23T03:56:31.267Z,75.44
2018-11-23T03:57:31.389Z,76.42
2018-11-23T03:58:31.527Z,76.42
2018-11-23T03:59:31.649Z,78.37
2018-11-23T04:00:31.787Z,77.39
2018-11-23T04:01:31.919Z,75.93
2018-11-23T04:02:32.050Z,77.15
2018-11-23T04:03:32.178Z,77.39
2018-11-23T04:04:32.310Z,76.66
2018-11-23T04:05:32.436Z,76.42
2018-11-23T04:06:32.589Z,76.90
2018-11-23T04:07:32.770Z,78.37
2018-11-23T04:08:33.459Z,76.42
2018-11-23T04:09:32.890Z,76.90
2018-11-23T04:10:33.022Z,76.90
2018-11-23T04:11:33.147Z,76.66
2018-11-23T04:12:33.281Z,76.42
2018-11-23T04:13:33.407Z,77.88
2018-11-23T04:14:33.536Z,75.93
2018-11-23T04:15:33.670Z,75.44
2018-11-23T04:16:33.850Z,75.68
2018-11-23T04:17:33.855Z,75.44
2018-11-23T04:18:33.982Z,75.93
2018-11-23T04:19:34.111Z,74.71
2018-11-23T04:20:34.244Z,75.44
2018-11-23T04:21:34.372Z,75.44
2018-11-23T04:22:34.500Z,74.46
2018-11-23T04:23:34.629Z,76.17
2018-11-23T04:24:34.761Z,75.20
2018-11-23T04:25:34.889Z,75.68
2018-11-23T04:26:35.018Z,76.42
2018-11-23T04:27:35.152Z,76.17
2018-11-23T04:28:35.286Z,76.42
2018-11-23T04:29:35.416Z,76.17
2018-11-23T04:30:35.547Z,77.15
2018-11-23T04:31:35.693Z,78.13
2018-11-23T04:32:35.825Z,76.90
2018-11-23T04:33:35.949Z,77.15
2018-11-23T04:34:36.079Z,75.68
2018-11-23T04:35:36.204Z,75.93
2018-11-23T04:36:36.335Z,76.66
2018-11-23T04:37:36.462Z,77.15
2018-11-23T04:38:36.593Z,77.64
2018-11-23T04:39:36.765Z,76.90
2018-11-23T04:40:36.978Z,78.13
2018-11-23T04:41:37.012Z,76.90
2018-11-23T04:42:37.133Z,76.42
2018-11-23T04:43:37.256Z,76.42
2018-11-23T04:44:37.386Z,75.93
2018-11-23T04:45:37.515Z,76.42
2018-11-23T04:46:37.645Z,76.90
2018-11-23T04:47:37.775Z,76.90
2018-11-23T04:48:37.903Z,76.42
2018-11-23T04:49:38.064Z,80.08
2018-11-23T04:50:38.197Z,76.66
2018-11-23T04:51:38.326Z,77.64
2018-11-23T04:52:38.453Z,76.42
2018-11-23T04:53:38.584Z,75.93
2018-11-23T04:54:38.709Z,76.17
2018-11-23T04:55:38.837Z,76.42
2018-11-23T04:56:38.976Z,76.66
2018-11-23T04:57:39.101Z,75.68
2018-11-23T04:58:39.226Z,76.90
2018-11-23T04:59:39.354Z,76.17
2018-11-23T05:00:39.485Z,76.17
2018-11-23T05:01:39.614Z,75.44
2018-11-23T05:02:39.741Z,75.20
2018-11-23T05:03:39.866Z,76.90
2018-11-23T05:04:40.000Z,77.15
2018-11-23T05:05:40.134Z,75.44
2018-11-23T05:06:40.246Z,78.86
2018-11-23T05:07:40.374Z,75.93
2018-11-23T05:08:40.501Z,76.42
2018-11-23T05:09:40.625Z,77.15
2018-11-23T05:10:40.757Z,78.13
2018-11-23T05:11:40.883Z,76.42
2018-11-23T05:12:41.009Z,77.64
2018-11-23T05:13:41.138Z,77.15
2018-11-23T05:14:41.267Z,77.88
2018-11-23T05:15:41.392Z,77.64
2018-11-23T05:16:41.524Z,77.39
2018-11-23T05:17:41.656Z,76.42
2018-11-23T05:18:41.781Z,75.44
2018-11-23T05:19:41.921Z,76.66
2018-11-23T05:20:42.047Z,78.86
2018-11-23T05:21:42.175Z,76.17
2018-11-23T05:22:42.300Z,78.37
2018-11-23T05:23:42.428Z,75.44
2018-11-23T05:24:42.560Z,76.90
2018-11-23T05:25:42.687Z,76.42
2018-11-23T05:26:42.820Z,76.66
2018-11-23T05:27:42.941Z,78.61
2018-11-23T05:28:43.069Z,77.15
2018-11-23T05:29:43.202Z,76.90
2018-11-23T05:30:43.328Z,75.93
2018-11-23T05:31:43.459Z,75.20
2018-11-23T05:32:43.586Z,78.61
2018-11-23T05:33:43.710Z,76.42
2018-11-23T05:34:43.836Z,76.66
2018-11-23T05:35:43.966Z,78.37
2018-11-23T05:36:44.147Z,77.15
2018-11-23T05:37:44.271Z,76.66
2018-11-23T05:38:44.406Z,76.42
2018-11-23T05:39:44.546Z,76.17
2018-11-23T05:40:44.671Z,75.93
2018-11-23T05:41:44.808Z,76.66
2018-11-23T05:42:44.939Z,77.39
2018-11-23T05:43:45.065Z,78.13
2018-11-23T05:44:45.196Z,76.66
2018-11-23T05:45:45.322Z,76.90
2018-11-23T05:46:45.514Z,77.88
2018-11-23T05:47:45.516Z,77.88
2018-11-23T05:48:45.636Z,76.17
2018-11-23T05:49:45.767Z,77.64
2018-11-23T05:50:45.893Z,77.39
2018-11-23T05:51:46.025Z,76.90
2018-11-23T05:52:46.160Z,77.64
2018-11-23T05:53:46.340Z,77.15
2018-11-23T05:54:46.471Z,76.66
2018-11-23T05:55:46.602Z,76.42
2018-11-23T05:56:47.488Z,78.13
2018-11-23T05:57:46.871Z,77.39
2018-11-23T05:58:46.998Z,77.39
2018-11-23T05:59:47.132Z,80.32
2018-11-23T06:00:47.253Z,78.13
2018-11-23T06:01:47.379Z,77.15
2018-11-23T06:02:47.509Z,77.64
2018-11-23T06:03:47.640Z,77.88
2018-11-23T06:04:47.768Z,76.66
2018-11-23T06:05:47.896Z,76.90
2018-11-23T06:06:48.028Z,80.08
2018-11-23T06:07:48.164Z,79.35
2018-11-23T06:08:48.279Z,75.93
2018-11-23T06:09:48.407Z,78.37
2018-11-23T06:10:48.539Z,78.13
2018-11-23T06:11:48.668Z,77.88
2018-11-23T06:12:48.791Z,78.13
2018-11-23T06:13:48.922Z,77.39
2018-11-23T06:14:49.056Z,77.15
2018-11-23T06:15:49.185Z,76.90
2018-11-23T06:16:49.320Z,78.86
2018-11-23T06:17:49.440Z,78.13
2018-11-23T06:18:49.566Z,78.13
2018-11-23T06:19:49.695Z,77.88
2018-11-23T06:20:49.821Z,78.13
2018-11-23T06:21:49.948Z,77.39
2018-11-23T06:22:50.075Z,77.64
2018-11-23T06:23:50.201Z,78.37
2018-11-23T06:24:50.329Z,77.88
2018-11-23T06:25:51.020Z,78.13
2018-11-23T06:26:50.589Z,76.90
2018-11-23T06:27:50.719Z,77.88
2018-11-23T06:28:50.844Z,76.90
2018-11-23T06:29:50.971Z,78.37
2018-11-23T06:30:51.092Z,77.64
2018-11-23T06:31:51.222Z,75.93
2018-11-23T06:32:51.346Z,81.54
2018-11-23T06:33:51.478Z,78.37
2018-11-23T06:34:51.611Z,77.64
2018-11-23T06:35:51.732Z,76.66
2018-11-23T06:36:51.862Z,76.90
2018-11-23T06:37:51.990Z,77.88
2018-11-23T06:38:52.121Z,77.39
2018-11-23T06:39:52.248Z,77.15
2018-11-23T06:40:52.374Z,76.90
2018-11-23T06:41:52.505Z,76.66
2018-11-23T06:42:52.638Z,76.42
2018-11-23T06:43:52.766Z,78.61
2018-11-23T06:44:52.886Z,77.39
2018-11-23T06:45:53.014Z,79.10
2018-11-23T06:46:53.142Z,78.61
2018-11-23T06:47:53.274Z,78.13
2018-11-23T06:48:53.404Z,77.64
2018-11-23T06:49:53.529Z,77.15
2018-11-23T06:50:53.659Z,78.61
2018-11-23T06:51:53.780Z,77.15
2018-11-23T06:52:53.906Z,77.15
2018-11-23T06:53:54.027Z,77.88
2018-11-23T06:54:54.153Z,78.13
2018-11-23T06:55:54.286Z,77.15
2018-11-23T06:56:54.409Z,78.37
2018-11-23T06:57:54.535Z,76.42
2018-11-23T06:58:54.662Z,78.13
2018-11-23T06:59:54.789Z,77.88
2018-11-23T07:00:54.917Z,78.13
2018-11-23T07:01:55.048Z,77.39
2018-11-23T07:02:59.117Z,75.20
2018-11-23T07:03:55.307Z,78.37
2018-11-23T07:04:55.434Z,77.88
2018-11-23T07:05:55.587Z,76.90
2018-11-23T07:06:55.720Z,77.64
2018-11-23T07:07:55.845Z,78.13
2018-11-23T07:08:55.973Z,77.88
2018-11-23T07:09:56.100Z,77.39
2018-11-23T07:10:56.226Z,77.64
2018-11-23T07:11:56.349Z,76.90
2018-11-23T07:12:56.480Z,78.37
2018-11-23T07:13:56.606Z,75.44
2018-11-23T07:14:56.731Z,77.39
2018-11-23T07:15:56.864Z,78.86
2018-11-23T07:16:56.981Z,78.13
2018-11-23T07:17:57.117Z,77.64
2018-11-23T07:18:57.247Z,77.88
2018-11-23T07:19:57.379Z,76.90
2018-11-23T07:20:57.504Z,76.17
2018-11-23T07:21:57.627Z,77.64
2018-11-23T07:22:57.755Z,78.37
2018-11-23T07:23:57.879Z,77.88
2018-11-23T07:24:58.009Z,76.17
2018-11-23T07:25:58.136Z,77.39
2018-11-23T07:26:58.267Z,78.61
2018-11-23T07:27:58.388Z,75.93
2018-11-23T07:28:58.516Z,77.88
2018-11-23T07:29:58.642Z,79.10
2018-11-23T07:31:02.521Z,80.32
2018-11-23T07:31:58.896Z,76.66
2018-11-23T07:32:59.020Z,76.17
2018-11-23T07:33:59.143Z,76.17
2018-11-23T07:34:59.275Z,78.37
2018-11-23T07:35:59.396Z,76.42
2018-11-23T07:36:59.525Z,78.61
2018-11-23T07:37:59.656Z,76.42
2018-11-23T07:38:59.781Z,77.88
2018-11-23T07:39:59.906Z,77.39
2018-11-23T07:41:00.036Z,76.66
2018-11-23T07:42:00.162Z,77.39
2018-11-23T07:43:00.290Z,77.64
2018-11-23T07:44:00.414Z,77.39
2018-11-23T07:45:00.539Z,77.64
2018-11-23T07:46:00.670Z,78.86
2018-11-23T07:47:00.803Z,78.13
2018-11-23T07:48:00.934Z,78.86
2018-11-23T07:49:01.071Z,78.61
2018-11-23T07:50:01.194Z,76.42
2018-11-23T07:51:01.323Z,76.90
2018-11-23T07:52:01.452Z,76.90
2018-11-23T07:53:01.580Z,77.64
2018-11-23T07:54:01.712Z,77.88
2018-11-23T07:55:01.838Z,80.08
2018-11-23T07:56:01.967Z,78.13
2018-11-23T07:57:02.103Z,77.64
2018-11-23T07:58:02.228Z,77.64
2018-11-23T07:59:02.397Z,77.39
2018-11-23T08:00:02.541Z,77.15
2018-11-23T08:01:02.667Z,77.15
2018-11-23T08:02:02.814Z,77.64
2018-11-23T08:03:02.932Z,78.37
2018-11-23T08:04:03.061Z,76.42
2018-11-23T08:05:03.185Z,76.66
2018-11-23T08:06:03.331Z,75.68
2018-11-23T08:07:03.451Z,76.90
2018-11-23T08:08:03.581Z,77.15
2018-11-23T08:09:03.704Z,78.61
2018-11-23T08:10:03.833Z,76.42
2018-11-23T08:11:03.971Z,77.39
2018-11-23T08:12:04.091Z,78.86
2018-11-23T08:13:04.218Z,78.13
2018-11-23T08:14:04.343Z,76.42
2018-11-23T08:15:04.466Z,79.59
2018-11-23T08:16:04.595Z,77.88
2018-11-23T08:19:37.275Z,77.64
2018-11-23T08:20:37.400Z,80.57
2018-11-23T08:21:37.522Z,76.17
2018-11-23T08:22:37.651Z,76.66
2018-11-23T08:23:37.780Z,78.86
2018-11-23T08:24:37.906Z,78.61
2018-11-23T08:25:38.035Z,78.37
2018-11-23T08:26:38.170Z,76.66
2018-11-23T08:27:38.291Z,78.37
2018-11-23T08:28:38.417Z,76.90
2018-11-23T08:29:38.550Z,82.76
2018-11-23T08:30:38.690Z,78.13
2018-11-23T08:31:38.807Z,77.64
2018-11-23T08:32:38.933Z,77.39
2018-11-23T08:33:39.062Z,76.66
2018-11-23T08:34:39.216Z,76.42
2018-11-23T08:35:39.371Z,75.68
2018-11-23T08:36:39.498Z,76.90
2018-11-23T08:37:39.632Z,78.13
2018-11-23T08:38:39.771Z,76.90
2018-11-23T08:39:39.895Z,77.15
2018-11-23T08:40:40.040Z,76.90
2018-11-23T08:41:40.163Z,77.39
2018-11-23T08:42:40.296Z,77.88
2018-11-23T08:43:40.445Z,78.13
2018-11-23T08:44:40.572Z,79.83
2018-11-23T08:45:40.757Z,76.90
2018-11-23T08:46:40.882Z,77.39
2018-11-23T08:47:41.036Z,77.15
2018-11-23T08:48:42.031Z,76.42
2018-11-23T08:49:41.244Z,77.64
2018-11-23T08:50:41.389Z,76.42
2018-11-23T08:51:41.510Z,77.15
2018-11-23T08:52:41.646Z,76.42
2018-11-23T08:53:41.799Z,76.90
2018-11-23T08:54:41.954Z,76.42
2018-11-23T08:55:42.081Z,76.90
2018-11-23T08:56:42.207Z,76.90
2018-11-23T08:57:42.337Z,78.37
2018-11-23T08:58:42.471Z,77.15
2018-11-23T08:59:42.603Z,77.15
2018-11-23T09:00:42.724Z,77.88
2018-11-23T09:01:42.857Z,77.88
2018-11-23T09:02:42.990Z,77.64
2018-11-23T09:03:43.134Z,76.66
2018-11-23T09:04:43.259Z,77.64
2018-11-23T09:05:43.387Z,77.64
2018-11-23T09:06:43.515Z,77.88
2018-11-23T09:07:43.641Z,78.37
2018-11-23T09:08:43.770Z,78.13
2018-11-23T09:09:43.898Z,78.86
2018-11-23T09:10:44.024Z,78.37
2018-11-23T09:11:44.156Z,77.39
2018-11-23T09:12:44.282Z,78.37
2018-11-23T09:13:44.415Z,76.42
2018-11-23T09:14:44.542Z,77.39
2018-11-23T09:15:44.671Z,76.90
2018-11-23T09:16:44.802Z,77.88
2018-11-23T09:17:44.937Z,78.61
2018-11-23T09:18:45.059Z,78.86
2018-11-23T09:19:45.196Z,76.90
2018-11-23T09:20:45.328Z,77.88
2018-11-23T09:21:45.456Z,78.86
2018-11-23T09:22:45.588Z,80.32
2018-11-23T09:23:45.716Z,78.13
2018-11-23T09:24:45.846Z,78.13
2018-11-23T09:25:45.975Z,77.39
2018-11-23T09:26:46.098Z,79.10
2018-11-23T09:27:46.229Z,77.39
2018-11-23T09:28:46.363Z,78.37
2018-11-23T09:29:46.489Z,77.64
2018-11-23T09:30:46.614Z,77.64
2018-11-23T09:31:46.750Z,77.88
2018-11-23T09:32:46.875Z,77.88
2018-11-23T09:33:47.003Z,78.37
2018-11-23T09:34:47.127Z,76.90
2018-11-23T09:35:47.255Z,76.66
2018-11-23T09:36:47.388Z,80.32
2018-11-23T09:37:47.513Z,77.39
2018-11-23T09:38:47.642Z,75.68
2018-11-23T09:39:47.769Z,76.42
2018-11-23T09:40:47.899Z,78.13
2018-11-23T09:41:48.032Z,75.20
2018-11-23T09:42:48.159Z,74.71
2018-11-23T09:43:48.297Z,77.39
2018-11-23T09:44:48.424Z,74.71
2018-11-23T09:45:49.179Z,76.66
2018-11-23T09:46:48.684Z,75.44
2018-11-23T09:47:48.810Z,76.17
2018-11-23T09:48:48.938Z,74.95
2018-11-23T09:49:49.063Z,73.49
2018-11-23T09:50:49.191Z,74.71
2018-11-23T09:51:49.320Z,78.37
2018-11-23T09:52:49.452Z,76.90
2018-11-23T09:53:49.581Z,75.20
2018-11-23T09:54:49.703Z,73.73
2018-11-23T09:55:49.834Z,75.44
2018-11-23T09:56:49.956Z,79.10
2018-11-23T09:57:50.084Z,74.22
2018-11-23T09:58:50.214Z,75.44
2018-11-23T09:59:50.360Z,76.17
2018-11-23T10:00:50.474Z,75.20
2018-11-23T10:01:50.603Z,77.39
2018-11-23T10:02:51.675Z,73.73
2018-11-23T10:03:50.851Z,74.95
2018-11-23T10:04:51.008Z,76.66
2018-11-23T10:05:51.113Z,75.44
2018-11-23T10:06:51.242Z,73.49
2018-11-23T10:07:51.375Z,73.97
2018-11-23T10:08:51.512Z,72.02
2018-11-23T10:09:51.640Z,77.64
2018-11-23T10:10:51.771Z,74.46
2018-11-23T10:11:51.896Z,74.46
2018-11-23T10:12:52.674Z,75.68
2018-11-23T10:13:52.151Z,73.73
2018-11-23T10:14:52.287Z,75.93
2018-11-23T10:15:52.412Z,75.68
2018-11-23T10:16:52.550Z,72.75
2018-11-23T10:17:52.684Z,72.51
2018-11-23T10:18:52.811Z,72.27
2018-11-23T10:19:58.067Z,73.97
2018-11-23T10:20:53.089Z,72.02
2018-11-23T10:21:53.221Z,73.97
2018-11-23T10:22:53.347Z,74.22
2018-11-23T10:23:53.477Z,76.42
2018-11-23T10:24:53.607Z,75.93
2018-11-23T10:25:53.750Z,76.17
2018-11-23T10:26:53.883Z,73.00
2018-11-23T10:27:53.998Z,76.42
2018-11-23T10:28:54.139Z,74.71
2018-11-23T10:29:55.371Z,76.90
2018-11-23T10:30:54.396Z,73.97
2018-11-23T10:31:54.525Z,73.49
2018-11-23T10:32:54.661Z,74.95
2018-11-23T10:33:54.791Z,76.17
2018-11-23T10:34:54.923Z,72.27
2018-11-23T10:35:55.870Z,73.49
2018-11-23T10:36:55.209Z,74.71
2018-11-23T10:37:55.332Z,74.22
2018-11-23T10:38:55.469Z,75.20
2018-11-23T10:39:55.601Z,73.00
2018-11-23T10:40:55.728Z,74.46
2018-11-23T10:41:55.859Z,72.51
2018-11-23T10:42:55.992Z,71.78
2018-11-23T10:43:56.673Z,75.93
2018-11-23T10:44:56.249Z,73.97
2018-11-23T10:45:56.364Z,75.93
2018-11-23T10:46:56.519Z,73.73
2018-11-23T10:47:56.648Z,74.46
2018-11-23T10:48:56.770Z,74.46
2018-11-23T10:49:56.901Z,73.00
2018-11-23T10:50:57.028Z,72.75
2018-11-23T10:51:57.157Z,78.13
2018-11-23T10:52:57.289Z,72.02
2018-11-23T10:53:57.418Z,74.22
2018-11-23T10:54:57.545Z,74.71
2018-11-23T10:55:57.677Z,75.20
2018-11-23T10:56:57.811Z,74.22
2018-11-23T10:57:57.943Z,74.46
2018-11-23T10:58:58.124Z,74.71
2018-11-23T10:59:58.233Z,74.95
2018-11-23T11:00:58.344Z,73.73
2018-11-23T11:01:58.488Z,74.71
2018-11-23T11:02:59.189Z,72.75
2018-11-23T11:06:30.979Z,74.95
2018-11-23T11:07:31.092Z,71.78
2018-11-23T11:08:31.228Z,75.20
2018-11-23T11:09:31.367Z,72.27
2018-11-23T11:10:31.496Z,74.95
2018-11-23T11:11:31.623Z,73.00
2018-11-23T11:12:31.765Z,72.02
2018-11-23T11:13:31.930Z,74.22
2018-11-23T11:14:32.047Z,75.68
2018-11-23T11:15:32.181Z,74.22
2018-11-23T11:16:32.309Z,73.73
2018-11-23T11:17:32.451Z,72.51
2018-11-23T11:18:32.577Z,74.46
2018-11-23T11:19:32.714Z,73.73
2018-11-23T11:20:32.843Z,73.24
2018-11-23T11:21:32.970Z,73.97
2018-11-23T11:22:33.101Z,73.24
2018-11-23T11:23:33.230Z,74.22
2018-11-23T11:24:33.357Z,73.73
2018-11-23T11:25:33.490Z,75.20
2018-11-23T11:26:33.616Z,74.22
2018-11-23T11:27:33.746Z,74.95
2018-11-23T11:28:33.900Z,72.51
2018-11-23T11:29:34.020Z,76.66
2018-11-23T11:30:34.154Z,73.49
2018-11-23T11:31:34.279Z,76.17
2018-11-23T11:32:34.411Z,75.44
2018-11-23T11:33:34.537Z,75.20
2018-11-23T11:34:34.673Z,73.00
2018-11-23T11:35:34.845Z,72.75
2018-11-23T11:36:34.965Z,70.80
2018-11-23T11:37:35.085Z,76.42
2018-11-23T11:38:35.234Z,76.42
2018-11-23T11:39:35.392Z,75.20
2018-11-23T11:40:35.517Z,72.75
2018-11-23T11:41:35.652Z,75.93
2018-11-23T11:42:35.783Z,74.22
2018-11-23T11:43:35.909Z,75.93
2018-11-23T11:44:36.075Z,76.66
2018-11-23T11:45:36.201Z,73.73
2018-11-23T11:46:36.332Z,73.00
2018-11-23T11:47:36.457Z,75.68
2018-11-23T11:48:36.586Z,73.49
2018-11-23T11:49:36.726Z,73.24
2018-11-23T11:50:36.856Z,73.97
2018-11-23T11:51:36.988Z,73.24
2018-11-23T11:52:37.123Z,73.00
2018-11-23T11:53:37.285Z,76.42
2018-11-23T11:54:37.421Z,74.46
2018-11-23T11:55:37.556Z,72.27
2018-11-23T11:56:37.698Z,71.53
2018-11-23T11:57:37.824Z,74.71
2018-11-23T11:58:37.982Z,74.22
2018-11-23T11:59:38.177Z,74.95
2018-11-23T12:00:38.190Z,72.75
2018-11-23T12:01:38.310Z,73.00
2018-11-23T12:02:38.437Z,76.66
2018-11-23T12:03:38.561Z,76.17
2018-11-23T12:04:38.689Z,72.75
2018-11-23T12:05:38.817Z,74.22
2018-11-23T12:06:38.942Z,71.29
2018-11-23T12:07:39.075Z,74.46
2018-11-23T12:08:39.217Z,75.68
2018-11-23T12:09:39.345Z,76.17
2018-11-23T12:10:39.475Z,75.44
2018-11-23T12:11:39.614Z,74.71
2018-11-23T12:12:39.769Z,76.90
2018-11-23T12:13:40.011Z,73.00
2018-11-23T12:14:40.023Z,73.49
2018-11-23T12:15:40.152Z,75.20
2018-11-23T12:16:40.299Z,74.22
2018-11-23T12:17:40.449Z,73.73
2018-11-23T12:18:40.595Z,75.20
2018-11-23T12:19:40.725Z,85.21
2018-11-23T12:20:40.906Z,74.46
2018-11-23T12:21:41.045Z,74.22
2018-11-23T12:22:41.172Z,73.49
2018-11-23T12:23:41.305Z,75.68
2018-11-23T12:24:41.486Z,75.68
2018-11-23T12:25:41.728Z,73.49
2018-11-23T12:26:41.745Z,77.15
2018-11-23T12:27:41.875Z,74.71
2018-11-23T12:28:42.025Z,74.22
2018-11-23T12:29:42.166Z,75.68
2018-11-23T12:30:42.296Z,73.73
2018-11-23T12:31:42.430Z,73.49
2018-11-23T12:32:42.593Z,74.71
2018-11-23T12:33:42.807Z,73.73
2018-11-23T12:34:42.815Z,73.73
2018-11-23T12:35:42.948Z,74.46
2018-11-23T12:36:43.116Z,73.00
2018-11-23T12:37:43.242Z,73.24
2018-11-23T12:38:43.369Z,74.46
2018-11-23T12:39:43.499Z,72.75
2018-11-23T12:40:43.647Z,73.49
2018-11-23T12:41:43.775Z,73.00
2018-11-23T12:42:43.995Z,74.46
2018-11-23T12:43:44.006Z,74.71
2018-11-23T12:44:44.190Z,74.22
2018-11-23T12:45:44.318Z,72.51
2018-11-23T12:46:44.450Z,74.71
2018-11-23T12:47:44.576Z,74.22
2018-11-23T12:48:44.712Z,77.39
2018-11-23T12:49:44.851Z,72.51
2018-11-23T12:50:44.983Z,73.97
2018-11-23T12:51:45.120Z,73.24
2018-11-23T12:52:45.295Z,74.71
2018-11-23T12:53:45.513Z,73.49
2018-11-23T12:54:45.614Z,73.24
2018-11-23T12:55:45.746Z,74.46
2018-11-23T12:56:45.877Z,72.27
2018-11-23T12:57:46.040Z,73.00
2018-11-23T12:58:46.141Z,74.71